createdAt,value
2023-04-21T00:01:59.656Z,99.90
2023-04-21T00:04:27.411Z,99.90
2023-04-21T00:06:55.274Z,99.90
2023-04-21T00:09:22.488Z,99.90
2023-04-21T00:11:49.408Z,99.90
2023-04-21T00:14:16.365Z,99.90
2023-04-21T00:16:43.278Z,99.90
2023-04-21T00:19:10.506Z,99.90
2023-04-21T00:21:37.512Z,99.90
2023-04-21T00:24:04.754Z,99.90
2023-04-21T00:26:31.704Z,99.90
2023-04-21T00:28:58.895Z,99.90
2023-04-21T00:31:26.025Z,99.90
2023-04-21T00:33:53.999Z,99.90
2023-04-21T00:36:24.757Z,99.90
2023-04-21T00:38:51.751Z,99.90
2023-04-21T00:41:19.105Z,99.90
2023-04-21T00:44:06.267Z,99.90
2023-04-21T00:46:34.586Z,99.90
2023-04-21T00:49:04.563Z,99.90
2023-04-21T00:51:34.377Z,99.90
2023-04-21T00:54:04.041Z,99.90
2023-04-21T00:56:32.615Z,99.90
2023-04-21T00:59:02.229Z,99.90
2023-04-21T01:01:30.212Z,99.90
2023-04-21T01:04:00.301Z,99.90
2023-04-21T01:06:32.370Z,99.90
2023-04-21T01:08:59.409Z,99.90
2023-04-21T01:11:26.466Z,99.90
2023-04-21T01:13:54.638Z,99.90
2023-04-21T01:16:23.235Z,99.90
2023-04-21T01:18:53.481Z,99.90
2023-04-21T01:21:21.722Z,99.90
2023-04-21T01:23:48.850Z,99.90
2023-04-21T01:26:19.541Z,99.90
2023-04-21T01:28:48.686Z,99.90
2023-04-21T01:31:16.967Z,99.90
2023-04-21T01:33:44.689Z,99.90
2023-04-21T01:36:11.709Z,99.90
2023-04-21T01:38:40.509Z,99.90
2023-04-21T01:41:08.458Z,99.90
2023-04-21T01:43:35.857Z,99.90
2023-04-21T01:46:04.148Z,99.90
2023-04-21T01:48:31.184Z,99.90
2023-04-21T01:51:00.184Z,99.90
2023-04-21T01:53:27.156Z,99.90
2023-04-21T01:55:54.191Z,99.90
2023-04-21T01:58:21.855Z,99.90
2023-04-21T02:00:48.862Z,99.90
2023-04-21T02:03:15.921Z,99.90
2023-04-21T02:05:45.961Z,99.90
2023-04-21T02:08:12.950Z,99.90
2023-04-21T02:10:41.567Z,99.90
2023-04-21T02:13:11.954Z,99.90
2023-04-21T02:15:39.105Z,99.90
2023-04-21T02:18:08.383Z,99.90
2023-04-21T02:20:36.245Z,99.90
2023-04-21T02:23:03.304Z,99.90
2023-04-21T02:25:30.811Z,99.90
2023-04-21T02:27:57.792Z,99.90
2023-04-21T02:30:27.729Z,99.90
2023-04-21T02:32:54.879Z,99.90
2023-04-21T02:35:21.949Z,99.90
2023-04-21T02:37:50.838Z,99.90
2023-04-21T02:40:17.877Z,99.90
2023-04-21T02:42:44.924Z,99.90
2023-04-21T02:45:11.973Z,99.90
2023-04-21T02:47:38.925Z,99.90
2023-04-21T02:50:06.739Z,99.90
2023-04-21T02:52:38.027Z,99.90
2023-04-21T02:55:05.497Z,99.90
2023-04-21T02:57:32.431Z,99.90
2023-04-21T03:00:00.416Z,99.90
2023-04-21T03:02:27.522Z,99.90
2023-04-21T03:04:54.586Z,99.90
2023-04-21T03:07:21.689Z,99.90
2023-04-21T03:09:48.693Z,99.90
2023-04-21T03:12:15.749Z,99.90
2023-04-21T03:14:44.662Z,99.90
2023-04-21T03:17:12.454Z,99.90
2023-04-21T03:19:39.401Z,99.90
2023-04-21T03:22:06.855Z,99.90
2023-04-21T03:24:33.998Z,99.90
2023-04-21T03:27:02.539Z,99.90
2023-04-21T03:29:29.547Z,99.90
2023-04-21T03:31:56.576Z,99.90
2023-04-21T03:34:25.394Z,99.90
2023-04-21T03:36:52.428Z,99.90
2023-04-21T03:39:20.344Z,99.90
2023-04-21T03:41:49.349Z,99.90
2023-04-21T03:44:16.507Z,99.90
2023-04-21T03:46:43.480Z,99.90
2023-04-21T03:49:10.402Z,99.90
2023-04-21T03:51:37.311Z,99.90
2023-04-21T03:54:04.290Z,99.90
2023-04-21T03:56:31.183Z,99.90
2023-04-21T03:58:58.164Z,99.90
2023-04-21T04:01:25.075Z,99.90
2023-04-21T04:03:52.099Z,99.90
2023-04-21T04:06:19.106Z,99.90
2023-04-21T04:08:46.492Z,99.90
2023-04-21T04:11:13.434Z,99.90
2023-04-21T04:13:40.584Z,99.90
2023-04-21T04:16:07.907Z,99.90
2023-04-21T04:18:34.828Z,99.90
2023-04-21T04:21:08.122Z,99.90
2023-04-21T04:23:35.448Z,99.90
2023-04-21T04:26:05.656Z,99.90
2023-04-21T04:28:33.692Z,99.90
2023-04-21T04:31:01.061Z,99.90
2023-04-21T04:33:28.010Z,99.90
2023-04-21T04:35:54.956Z,99.90
2023-04-21T04:38:23.084Z,99.90
2023-04-21T04:40:57.701Z,99.90
2023-04-21T04:43:25.594Z,99.90
2023-04-21T04:45:52.651Z,99.90
2023-04-21T04:48:19.876Z,99.90
2023-04-21T04:50:46.893Z,99.90
2023-04-21T04:53:13.926Z,99.90
2023-04-21T04:55:40.832Z,99.90
2023-04-21T04:58:07.824Z,99.90
2023-04-21T05:00:34.876Z,99.90
2023-04-21T05:03:01.898Z,99.90
2023-04-21T05:05:29.128Z,99.90
2023-04-21T05:07:57.359Z,99.90
2023-04-21T05:10:24.495Z,99.90
2023-04-21T05:12:51.471Z,99.90
2023-04-21T05:15:18.684Z,99.90
2023-04-21T05:17:45.656Z,99.90
2023-04-21T05:20:12.812Z,99.90
2023-04-21T05:22:40.459Z,99.90
2023-04-21T05:25:07.684Z,99.90
2023-04-21T05:27:34.756Z,99.90
2023-04-21T05:30:01.872Z,99.90
2023-04-21T05:32:29.373Z,99.90
2023-04-21T05:34:56.715Z,99.90
2023-04-21T05:37:23.680Z,99.90
2023-04-21T05:39:51.200Z,99.90
2023-04-21T05:42:21.898Z,99.90
2023-04-21T05:44:49.021Z,99.90
2023-04-21T05:47:16.074Z,99.90
2023-04-21T05:49:50.130Z,99.90
2023-04-21T05:52:21.501Z,99.90
2023-04-21T05:54:48.653Z,99.90
2023-04-21T05:57:18.472Z,99.90
2023-04-21T05:59:45.485Z,99.90
2023-04-21T06:02:12.926Z,99.90
2023-04-21T06:04:40.044Z,99.90
2023-04-21T06:07:08.305Z,99.90
2023-04-21T06:09:36.277Z,99.90
2023-04-21T06:12:03.871Z,99.90
2023-04-21T06:14:31.198Z,99.90
2023-04-21T06:16:58.529Z,99.90
2023-04-21T06:19:25.719Z,99.90
2023-04-21T06:21:52.818Z,99.90
2023-04-21T06:24:25.170Z,99.90
2023-04-21T06:26:53.336Z,99.90
2023-04-21T06:29:20.948Z,99.90
2023-04-21T06:31:48.396Z,99.50
2023-04-21T06:34:15.888Z,98.60
2023-04-21T06:36:42.922Z,98.30
2023-04-21T06:39:09.931Z,98.10
2023-04-21T06:41:36.908Z,98.20
2023-04-21T06:44:03.873Z,98.20
2023-04-21T06:46:31.447Z,98.00
2023-04-21T06:48:58.482Z,97.60
2023-04-21T06:51:25.670Z,96.60
2023-04-21T06:53:52.605Z,96.10
2023-04-21T06:56:19.479Z,94.70
2023-04-21T06:58:47.118Z,92.50
2023-04-21T07:01:14.158Z,91.10
2023-04-21T07:03:41.413Z,90.00
2023-04-21T07:06:08.508Z,88.30
2023-04-21T07:08:35.721Z,87.00
2023-04-21T07:11:02.881Z,84.30
2023-04-21T07:13:29.924Z,82.50
2023-04-21T07:15:56.933Z,80.90
2023-04-21T07:18:23.937Z,78.70
2023-04-21T07:20:51.327Z,76.20
2023-04-21T07:23:18.894Z,72.50
2023-04-21T07:25:46.077Z,70.60
2023-04-21T07:28:15.163Z,70.70
2023-04-21T07:30:42.258Z,70.90
2023-04-21T07:33:09.459Z,70.10
2023-04-21T07:35:36.452Z,69.50
2023-04-21T07:38:03.486Z,68.40
2023-04-21T07:40:31.307Z,67.00
2023-04-21T07:42:58.133Z,66.20
2023-04-21T07:45:25.225Z,62.80
2023-04-21T07:47:52.242Z,58.90
2023-04-21T07:50:19.313Z,56.00
2023-04-21T07:52:48.116Z,54.20
2023-04-21T07:55:15.224Z,54.50
2023-04-21T07:57:42.165Z,54.70
2023-04-21T08:00:09.631Z,54.00
2023-04-21T08:02:39.367Z,55.50
2023-04-21T08:05:06.523Z,56.20
2023-04-21T08:07:33.590Z,56.30
2023-04-21T08:10:00.803Z,56.70
2023-04-21T08:12:27.625Z,56.30
2023-04-21T08:14:55.725Z,55.70
2023-04-21T08:17:22.689Z,54.00
2023-04-21T08:19:49.856Z,52.80
2023-04-21T08:22:16.704Z,50.40
2023-04-21T08:24:43.497Z,45.60
2023-04-21T08:27:11.190Z,44.20
2023-04-21T08:29:38.117Z,41.50
2023-04-21T08:32:05.177Z,39.40
2023-04-21T08:34:32.196Z,36.70
2023-04-21T08:36:59.092Z,35.20
2023-04-21T08:39:26.884Z,34.40
2023-04-21T08:41:54.965Z,34.40
2023-04-21T08:44:22.225Z,33.30
2023-04-21T08:46:50.552Z,31.70
2023-04-21T08:49:21.496Z,32.00
2023-04-21T08:51:48.563Z,32.30
2023-04-21T08:54:15.733Z,33.10
2023-04-21T08:56:42.625Z,33.50
2023-04-21T08:59:09.524Z,32.60
2023-04-21T09:01:56.349Z,32.80
2023-04-21T09:04:23.724Z,32.60
2023-04-21T09:06:50.728Z,32.20
2023-04-21T09:09:17.887Z,31.80
2023-04-21T09:11:44.757Z,31.40
2023-04-21T09:14:11.565Z,30.30
2023-04-21T09:16:38.444Z,30.10
2023-04-21T09:19:13.656Z,29.60
2023-04-21T09:21:43.792Z,29.90
2023-04-21T09:24:10.692Z,29.50
2023-04-21T09:26:37.547Z,29.20
2023-04-21T09:29:06.495Z,29.20
2023-04-21T09:31:35.237Z,28.60
2023-04-21T09:34:02.491Z,29.00
2023-04-21T09:36:30.534Z,28.60
2023-04-21T09:39:24.232Z,28.60
2023-04-21T09:41:46.113Z,28.80
2023-04-21T09:44:13.035Z,28.70
2023-04-21T09:46:43.573Z,29.40
2023-04-21T09:49:12.367Z,29.90
2023-04-21T09:52:05.908Z,28.40
2023-04-21T09:54:31.839Z,29.20
2023-04-21T09:57:02.789Z,29.90
2023-04-21T09:59:34.860Z,29.40
2023-04-21T10:02:04.693Z,30.50
2023-04-21T10:04:33.216Z,31.80
2023-04-21T10:07:00.904Z,31.80
2023-04-21T10:09:31.146Z,31.30
2023-04-21T10:11:58.104Z,30.90
2023-04-21T10:14:27.706Z,31.00
2023-04-21T10:16:57.927Z,32.10
2023-04-21T10:19:25.896Z,32.40
2023-04-21T10:21:55.428Z,31.20
2023-04-21T10:24:22.492Z,31.60
2023-04-21T10:26:51.472Z,31.50
2023-04-21T10:29:31.234Z,32.90
2023-04-21T10:32:03.291Z,33.60
2023-04-21T10:34:37.500Z,34.50
2023-04-21T10:37:04.686Z,36.10
2023-04-21T10:39:36.209Z,36.00
2023-04-21T10:42:19.721Z,34.70
2023-04-21T10:44:55.416Z,34.10
2023-04-21T10:47:24.956Z,32.50
2023-04-21T10:49:51.788Z,30.70
2023-04-21T10:52:20.845Z,30.30
2023-04-21T10:54:47.624Z,30.20
2023-04-21T10:57:15.770Z,31.20
2023-04-21T10:59:42.895Z,32.00
2023-04-21T11:02:17.870Z,33.50
2023-04-21T11:04:48.431Z,35.10
2023-04-21T11:07:19.776Z,37.40
2023-04-21T11:09:47.589Z,38.70
2023-04-21T11:12:18.314Z,40.00
2023-04-21T11:14:47.967Z,40.80
2023-04-21T11:17:15.836Z,41.50
2023-04-21T11:19:45.881Z,40.80
2023-04-21T11:22:12.963Z,41.10
2023-04-21T11:24:43.942Z,41.00
2023-04-21T11:27:12.372Z,40.90
2023-04-21T11:29:39.459Z,41.10
2023-04-21T11:32:06.973Z,42.60
2023-04-21T11:34:34.017Z,43.60
2023-04-21T11:37:00.818Z,44.10
2023-04-21T11:39:27.667Z,44.50
2023-04-21T11:41:54.607Z,44.70
2023-04-21T11:44:32.102Z,45.00
2023-04-21T11:46:58.944Z,45.90
2023-04-21T11:49:29.414Z,46.50
2023-04-21T11:51:56.567Z,47.10
2023-04-21T11:54:24.480Z,47.20
2023-04-21T11:56:52.238Z,47.80
2023-04-21T11:59:25.996Z,48.40
2023-04-21T12:01:53.775Z,49.30
2023-04-21T12:04:21.840Z,50.60
2023-04-21T12:07:01.843Z,52.20
2023-04-21T12:09:29.691Z,53.90
2023-04-21T12:11:58.736Z,54.90
2023-04-21T12:14:29.086Z,56.50
2023-04-21T12:16:57.715Z,57.70
2023-04-21T12:19:37.895Z,59.30
2023-04-21T12:22:07.410Z,60.40
2023-04-21T12:24:36.205Z,61.60
2023-04-21T12:27:04.049Z,62.50
2023-04-21T12:29:30.889Z,62.60
2023-04-21T12:31:57.982Z,63.50
2023-04-21T12:34:24.854Z,63.90
2023-04-21T12:36:51.716Z,64.40
2023-04-21T12:39:19.527Z,66.00
2023-04-21T12:41:47.578Z,67.80
2023-04-21T12:44:14.768Z,69.40
2023-04-21T12:46:41.706Z,70.60
2023-04-21T12:49:10.048Z,71.70
2023-04-21T12:51:37.220Z,72.40
2023-04-21T12:54:04.321Z,73.10
2023-04-21T12:56:31.490Z,73.60
2023-04-21T12:58:58.662Z,74.40
2023-04-21T13:01:25.633Z,75.10
2023-04-21T13:03:52.834Z,76.10
2023-04-21T13:06:19.916Z,76.80
2023-04-21T13:08:46.890Z,77.70
2023-04-21T13:11:13.934Z,78.10
2023-04-21T13:13:40.884Z,78.50
2023-04-21T13:16:07.721Z,78.90
2023-04-21T13:18:38.976Z,79.40
2023-04-21T13:21:06.432Z,79.70
2023-04-21T13:23:33.607Z,79.80
2023-04-21T13:26:01.055Z,80.10
2023-04-21T13:28:28.085Z,80.80
2023-04-21T13:30:55.065Z,81.40
2023-04-21T13:33:24.040Z,81.80
2023-04-21T13:35:51.194Z,82.10
2023-04-21T13:38:18.343Z,82.20
2023-04-21T13:40:46.173Z,82.90
2023-04-21T13:43:13.130Z,83.60
2023-04-21T13:45:40.068Z,83.90
2023-04-21T13:48:07.461Z,84.30
2023-04-21T13:50:34.452Z,84.40
2023-04-21T13:53:01.425Z,83.80
2023-04-21T13:55:28.362Z,83.00
2023-04-21T13:57:55.381Z,82.40
2023-04-21T14:00:22.770Z,82.30
2023-04-21T14:02:50.104Z,82.00
2023-04-21T14:05:17.449Z,81.70
2023-04-21T14:07:44.712Z,81.50
2023-04-21T14:10:14.866Z,81.00
2023-04-21T14:12:41.900Z,80.00
2023-04-21T14:15:08.886Z,78.60
2023-04-21T14:17:35.849Z,77.20
2023-04-21T14:20:02.855Z,76.30
2023-04-21T14:22:29.819Z,75.80
2023-04-21T14:24:56.646Z,75.40
2023-04-21T14:27:23.530Z,75.40
2023-04-21T14:29:50.455Z,75.30
2023-04-21T14:32:19.482Z,75.50
2023-04-21T14:34:47.088Z,76.10
2023-04-21T14:37:13.984Z,76.10
2023-04-21T14:39:41.265Z,76.10
2023-04-21T14:42:08.152Z,76.80
2023-04-21T14:44:35.794Z,76.80
2023-04-21T14:47:09.611Z,76.20
2023-04-21T14:49:38.312Z,75.80
2023-04-21T14:52:05.543Z,75.40
2023-04-21T14:54:32.430Z,75.00
2023-04-21T14:57:17.815Z,74.30
2023-04-21T14:59:48.024Z,73.40
2023-04-21T15:02:15.465Z,71.40
2023-04-21T15:04:42.732Z,69.10
2023-04-21T15:07:09.750Z,66.20
2023-04-21T15:09:37.202Z,64.70
2023-04-21T15:12:04.647Z,63.10
2023-04-21T15:14:31.493Z,62.50
2023-04-21T15:16:58.366Z,61.90
2023-04-21T15:19:25.718Z,61.60
2023-04-21T15:21:52.867Z,61.40
2023-04-21T15:24:19.794Z,61.50
2023-04-21T15:26:46.660Z,61.40
2023-04-21T15:29:13.531Z,61.20
2023-04-21T15:31:40.731Z,61.00
2023-04-21T15:34:07.984Z,60.60
2023-04-21T15:36:34.892Z,60.30
2023-04-21T15:39:01.888Z,60.30
2023-04-21T15:41:31.388Z,60.40
2023-04-21T15:44:01.098Z,60.40
2023-04-21T15:46:28.155Z,60.80
2023-04-21T15:48:55.117Z,60.40
2023-04-21T15:51:22.019Z,60.30
2023-04-21T15:53:49.397Z,60.50
2023-04-21T15:56:16.783Z,60.40
2023-04-21T15:58:44.077Z,61.00
2023-04-21T16:01:14.042Z,61.00
2023-04-21T16:03:41.158Z,62.00
2023-04-21T16:06:08.327Z,63.20
2023-04-21T16:08:35.211Z,64.00
2023-04-21T16:11:02.150Z,64.30
2023-04-21T16:13:29.178Z,64.40
2023-04-21T16:15:56.470Z,65.50
2023-04-21T16:18:23.466Z,65.60
2023-04-21T16:20:50.535Z,65.30
2023-04-21T16:23:17.465Z,65.60
2023-04-21T16:25:44.577Z,66.20
2023-04-21T16:28:11.719Z,67.30
2023-04-21T16:30:43.316Z,68.80
2023-04-21T16:33:11.537Z,68.50
2023-04-21T16:35:39.056Z,68.80
2023-04-21T16:38:06.518Z,69.30
2023-04-21T16:40:33.445Z,70.00
2023-04-21T16:43:00.435Z,70.60
2023-04-21T16:45:27.907Z,71.40
2023-04-21T16:47:54.968Z,72.10
2023-04-21T16:50:22.425Z,72.70
2023-04-21T16:52:49.663Z,73.20
2023-04-21T16:55:16.610Z,73.70
2023-04-21T16:57:43.508Z,74.10
2023-04-21T17:00:11.022Z,74.60
2023-04-21T17:02:38.342Z,75.00
2023-04-21T17:05:05.914Z,75.30
2023-04-21T17:07:34.243Z,75.90
2023-04-21T17:10:01.306Z,76.50
2023-04-21T17:12:28.462Z,77.20
2023-04-21T17:14:55.517Z,78.00
2023-04-21T17:17:22.680Z,78.60
2023-04-21T17:19:49.883Z,78.90
2023-04-21T17:22:17.018Z,79.20
2023-04-21T17:24:53.078Z,79.60
2023-04-21T17:27:21.489Z,80.00
2023-04-21T17:29:48.645Z,80.40
2023-04-21T17:32:17.050Z,80.80
2023-04-21T17:34:44.364Z,81.10
2023-04-21T17:37:11.604Z,81.50
2023-04-21T17:39:38.781Z,81.90
2023-04-21T17:42:05.905Z,82.30
2023-04-21T17:44:33.143Z,82.70
2023-04-21T17:47:00.652Z,83.00
2023-04-21T17:49:27.815Z,83.30
2023-04-21T17:51:54.839Z,83.70
2023-04-21T17:54:21.875Z,84.20
2023-04-21T17:56:48.979Z,84.60
2023-04-21T17:59:16.351Z,84.90
2023-04-21T18:01:43.434Z,85.00
2023-04-21T18:04:10.725Z,85.20
2023-04-21T18:06:37.883Z,85.50
2023-04-21T18:09:05.153Z,85.70
2023-04-21T18:11:32.556Z,86.20
2023-04-21T18:13:59.844Z,86.50
2023-04-21T18:16:27.360Z,86.80
2023-04-21T18:18:54.321Z,87.10
2023-04-21T18:21:21.494Z,87.20
2023-04-21T18:23:49.186Z,87.10
2023-04-21T18:26:16.293Z,87.20
2023-04-21T18:28:43.246Z,87.40
2023-04-21T18:31:10.424Z,87.70
2023-04-21T18:33:37.457Z,88.00
2023-04-21T18:36:05.160Z,88.10
2023-04-21T18:38:32.289Z,88.40
2023-04-21T18:40:59.349Z,88.60
2023-04-21T18:43:26.327Z,88.80
2023-04-21T18:45:53.490Z,88.90
2023-04-21T18:48:20.459Z,89.10
2023-04-21T18:50:47.387Z,89.30
2023-04-21T18:53:14.285Z,89.60
2023-04-21T18:55:41.248Z,89.80
2023-04-21T18:58:08.164Z,90.00
2023-04-21T19:00:39.007Z,90.10
2023-04-21T19:03:06.798Z,90.20
2023-04-21T19:05:36.151Z,90.30
2023-04-21T19:08:03.311Z,90.30
2023-04-21T19:10:30.520Z,90.40
2023-04-21T19:12:57.467Z,90.50
2023-04-21T19:15:24.437Z,90.70
2023-04-21T19:17:51.444Z,91.00
2023-04-21T19:20:18.528Z,91.10
2023-04-21T19:22:45.756Z,91.10
2023-04-21T19:25:12.922Z,91.20
2023-04-21T19:27:41.060Z,91.20
2023-04-21T19:30:08.890Z,91.30
2023-04-21T19:32:35.900Z,91.30
2023-04-21T19:35:03.667Z,91.40
2023-04-21T19:37:32.293Z,91.40
2023-04-21T19:40:00.645Z,91.50
2023-04-21T19:42:27.628Z,91.50
2023-04-21T19:44:54.546Z,91.60
2023-04-21T19:47:21.791Z,91.60
2023-04-21T19:49:49.389Z,91.60
2023-04-21T19:52:16.440Z,91.70
2023-04-21T19:54:43.344Z,91.70
2023-04-21T19:57:10.396Z,91.80
2023-04-21T19:59:37.649Z,91.80
2023-04-21T20:02:05.099Z,91.90
2023-04-21T20:04:34.825Z,91.90
2023-04-21T20:07:02.147Z,92.00
2023-04-21T20:09:29.458Z,92.00
2023-04-21T20:11:56.659Z,92.00
2023-04-21T20:14:23.599Z,92.10
2023-04-21T20:16:50.689Z,92.10
2023-04-21T20:19:17.856Z,92.20
2023-04-21T20:21:44.970Z,92.20
2023-04-21T20:24:12.271Z,92.20
2023-04-21T20:26:39.329Z,92.30
2023-04-21T20:29:06.331Z,92.30
2023-04-21T20:31:33.441Z,92.30
2023-04-21T20:34:00.515Z,92.30
2023-04-21T20:36:28.444Z,92.30
2023-04-21T20:38:57.186Z,92.20
2023-04-21T20:41:24.217Z,92.20
2023-04-21T20:43:51.980Z,92.20
2023-04-21T20:46:18.963Z,92.10
2023-04-21T20:48:45.967Z,92.10
2023-04-21T20:51:13.608Z,92.00
2023-04-21T20:53:40.589Z,92.00
2023-04-21T20:56:08.078Z,92.00
2023-04-21T20:58:36.132Z,91.90
2023-04-21T21:01:03.285Z,92.00
2023-04-21T21:03:30.792Z,92.00
2023-04-21T21:05:57.999Z,92.00
2023-04-21T21:08:25.025Z,92.10
2023-04-21T21:10:51.937Z,92.20
2023-04-21T21:13:18.916Z,92.30
2023-04-21T21:15:46.817Z,92.20
2023-04-21T21:18:14.016Z,92.20
2023-04-21T21:20:41.037Z,92.20
2023-04-21T21:23:08.144Z,92.10
2023-04-21T21:25:35.341Z,92.00
2023-04-21T21:28:02.326Z,91.90
2023-04-21T21:30:30.118Z,91.90
2023-04-21T21:32:57.737Z,91.90
2023-04-21T21:35:24.726Z,91.90
2023-04-21T21:37:51.898Z,91.90
2023-04-21T21:40:18.846Z,91.90
2023-04-21T21:42:45.975Z,91.80
2023-04-21T21:45:12.957Z,91.70
2023-04-21T21:47:43.881Z,91.70
2023-04-21T21:50:12.669Z,91.80
2023-04-21T21:52:39.573Z,91.80
2023-04-21T21:55:07.092Z,91.80
2023-04-21T21:57:34.379Z,91.90
2023-04-21T22:00:02.090Z,91.90
2023-04-21T22:02:32.064Z,92.00
2023-04-21T22:04:59.662Z,92.00
2023-04-21T22:07:26.796Z,92.00
2023-04-21T22:09:53.782Z,92.00
2023-04-21T22:12:20.902Z,92.00
2023-04-21T22:14:47.804Z,91.90
2023-04-21T22:17:15.920Z,91.80
2023-04-21T22:19:43.129Z,91.80
2023-04-21T22:22:10.587Z,91.80
2023-04-21T22:24:38.011Z,91.80
2023-04-21T22:27:05.049Z,91.80
2023-04-21T22:29:32.039Z,91.80
2023-04-21T22:31:59.159Z,91.90
2023-04-21T22:34:26.172Z,91.90
2023-04-21T22:36:53.476Z,91.90
2023-04-21T22:39:20.856Z,91.90
2023-04-21T22:41:47.812Z,91.80
2023-04-21T22:44:14.773Z,91.80
2023-04-21T22:46:41.969Z,91.80
2023-04-21T22:49:09.489Z,91.80
2023-04-21T22:51:36.888Z,91.70
2023-04-21T22:54:04.154Z,91.70
2023-04-21T22:56:31.561Z,91.70
2023-04-21T22:58:58.621Z,91.70
2023-04-21T23:01:25.651Z,91.70
2023-04-21T23:03:52.780Z,92.00
2023-04-21T23:06:19.795Z,91.70
2023-04-21T23:08:46.732Z,91.80
2023-04-21T23:11:14.054Z,91.80
2023-04-21T23:13:41.056Z,91.80
2023-04-21T23:16:08.113Z,91.80
2023-04-21T23:18:35.959Z,91.90
2023-04-21T23:21:03.092Z,91.90
2023-04-21T23:23:30.109Z,91.90
2023-04-21T23:25:57.107Z,91.90
2023-04-21T23:28:24.385Z,91.90
2023-04-21T23:30:51.440Z,92.00
2023-04-21T23:33:18.459Z,91.90
2023-04-21T23:35:45.650Z,92.00
2023-04-21T23:38:12.861Z,92.00
2023-04-21T23:40:39.881Z,92.00
2023-04-21T23:43:07.287Z,92.00
2023-04-21T23:45:34.258Z,92.10
2023-04-21T23:48:01.302Z,92.10
2023-04-21T23:50:28.338Z,92.10
2023-04-21T23:52:55.949Z,92.20
2023-04-21T23:55:22.945Z,92.30
2023-04-21T23:57:49.913Z,92.40
